createdAt,value
2019-04-23T00:02:18.565Z,15.10
2019-04-23T00:04:46.854Z,15.10
2019-04-23T00:07:39.630Z,15.10
2019-04-23T00:09:57.143Z,15.10
2019-04-23T00:12:38.099Z,15.10
2019-04-23T00:15:08.968Z,15.00
2019-04-23T00:20:06.691Z,14.90
2019-04-23T00:22:45.379Z,14.90
2019-04-23T00:28:06.582Z,14.90
2019-04-23T00:30:36.484Z,14.80
2019-04-23T00:33:07.480Z,14.80
2019-04-23T00:35:35.026Z,14.70
2019-04-23T00:38:05.892Z,14.70
2019-04-23T00:43:09.201Z,14.70
2019-04-23T00:45:39.883Z,14.60
2019-04-23T00:48:15.429Z,14.70
2019-04-23T00:50:44.922Z,14.70
2019-04-23T00:53:10.966Z,14.60
2019-04-23T00:55:46.568Z,14.70
2019-04-23T01:00:47.341Z,14.70
2019-04-23T01:03:17.480Z,14.60
2019-04-23T01:05:50.280Z,14.60
2019-04-23T01:08:20.135Z,14.60
2019-04-23T01:10:56.250Z,14.50
2019-04-23T01:13:31.334Z,14.50
2019-04-23T01:20:57.005Z,14.50
2019-04-23T01:23:37.763Z,14.50
2019-04-23T01:26:21.274Z,14.40
2019-04-23T01:28:59.879Z,14.40
2019-04-23T01:31:28.662Z,14.40
2019-04-23T01:33:55.510Z,14.40
2019-04-23T01:36:25.607Z,14.30
2019-04-23T01:39:03.653Z,14.30
2019-04-23T01:43:55.207Z,14.30
2019-04-23T01:46:35.772Z,14.20
2019-04-23T01:49:20.685Z,14.30
2019-04-23T01:51:44.674Z,14.20
2019-04-23T01:54:01.788Z,14.20
2019-04-23T01:56:36.903Z,14.20
2019-04-23T01:59:05.151Z,14.20
2019-04-23T02:01:43.252Z,14.20
2019-04-23T02:04:14.681Z,14.20
2019-04-23T02:06:38.669Z,14.30
2019-04-23T02:09:12.731Z,14.30
2019-04-23T02:11:37.700Z,14.30
2019-04-23T02:14:14.799Z,14.20
2019-04-23T02:16:45.935Z,14.20
2019-04-23T02:19:19.663Z,14.20
2019-04-23T02:21:56.423Z,14.10
2019-04-23T02:24:20.959Z,14.10
2019-04-23T02:26:48.574Z,14.10
2019-04-23T02:29:39.857Z,14.10
2019-04-23T02:34:42.953Z,14.10
2019-04-23T02:37:00.002Z,14.10
2019-04-23T02:39:46.463Z,14.10
2019-04-23T02:44:36.624Z,14.00
2019-04-23T02:49:48.968Z,14.00
2019-04-23T02:52:27.405Z,14.00
2019-04-23T02:57:05.617Z,14.00
2019-04-23T02:59:57.788Z,14.00
2019-04-23T03:07:22.458Z,14.00
2019-04-23T03:09:55.665Z,14.00
2019-04-23T03:12:26.704Z,13.90
2019-04-23T03:15:11.020Z,14.00
2019-04-23T03:17:51.169Z,14.00
2019-04-23T03:20:21.367Z,13.90
2019-04-23T03:27:56.108Z,13.90
2019-04-23T03:30:42.329Z,13.80
2019-04-23T03:36:17.105Z,13.80
2019-04-23T03:40:34.844Z,13.80
2019-04-23T03:43:06.750Z,13.80
2019-04-23T03:45:58.893Z,13.80
2019-04-23T03:48:06.313Z,13.80
2019-04-23T03:50:39.545Z,13.80
2019-04-23T03:53:13.985Z,13.70
2019-04-23T03:55:45.939Z,13.70
2019-04-23T03:58:18.765Z,13.70
2019-04-23T04:03:42.172Z,13.70
2019-04-23T04:06:11.519Z,13.60
2019-04-23T04:08:18.369Z,13.60
2019-04-23T04:13:30.906Z,13.60
2019-04-23T04:21:01.097Z,13.70
2019-04-23T04:26:00.289Z,13.70
2019-04-23T04:30:58.458Z,13.60
2019-04-23T04:38:44.904Z,13.60
2019-04-23T04:48:46.496Z,13.70
2019-04-23T04:51:19.411Z,13.70
2019-04-23T04:53:50.540Z,13.70
2019-04-23T04:56:21.334Z,13.70
2019-04-23T04:58:47.444Z,13.60
2019-04-23T05:01:12.173Z,13.60
2019-04-23T05:08:52.557Z,13.60
2019-04-23T05:11:17.473Z,13.60
2019-04-23T05:13:57.766Z,13.70
2019-04-23T05:16:15.974Z,13.70
2019-04-23T05:18:59.625Z,13.70
2019-04-23T05:21:20.340Z,13.70
2019-04-23T05:23:54.082Z,13.70
2019-04-23T05:26:26.955Z,13.80
2019-04-23T05:29:06.223Z,13.80
2019-04-23T05:34:00.302Z,13.80
2019-04-23T05:39:12.176Z,13.90
2019-04-23T05:44:02.010Z,14.00
2019-04-23T05:46:33.805Z,14.00
2019-04-23T05:48:59.525Z,14.00
2019-04-23T05:51:40.124Z,14.00
2019-04-23T05:56:36.880Z,14.10
2019-04-23T05:59:08.773Z,14.20
2019-04-23T06:04:14.081Z,14.20
2019-04-23T06:06:45.245Z,14.30
2019-04-23T06:11:55.528Z,14.40
2019-04-23T06:14:11.425Z,14.50
2019-04-23T06:16:41.510Z,14.60
2019-04-23T06:19:14.119Z,14.70
2019-04-23T06:21:56.205Z,14.70
2019-04-23T06:24:21.765Z,14.70
2019-04-23T06:26:45.494Z,14.80
2019-04-23T06:29:22.518Z,14.90
2019-04-23T06:39:15.956Z,15.10
2019-04-23T06:41:52.721Z,15.00
2019-04-23T06:44:25.490Z,15.10
2019-04-23T06:46:56.948Z,15.10
2019-04-23T06:49:27.101Z,15.30
2019-04-23T06:52:07.070Z,15.30
2019-04-23T06:57:11.872Z,15.30
2019-04-23T07:02:09.959Z,15.40
2019-04-23T07:04:34.295Z,15.60
2019-04-23T07:07:25.537Z,15.70
2019-04-23T07:09:26.018Z,15.80
2019-04-23T07:12:05.242Z,15.90
2019-04-23T07:14:44.285Z,15.90
2019-04-23T07:17:04.238Z,15.90
2019-04-23T07:22:12.916Z,16.10
2019-04-23T07:24:43.667Z,16.20
2019-04-23T07:27:11.739Z,16.30
2019-04-23T07:29:41.698Z,16.30
2019-04-23T07:32:11.858Z,16.30
2019-04-23T07:34:49.492Z,16.40
2019-04-23T07:37:15.582Z,16.20
2019-04-23T07:40:11.256Z,16.30
2019-04-23T07:42:42.103Z,16.40
2019-04-23T07:45:27.994Z,16.40
2019-04-23T07:48:10.870Z,16.50
2019-04-23T08:05:57.436Z,17.60
2019-04-23T08:08:11.680Z,17.70
2019-04-23T08:11:30.774Z,17.70
2019-04-23T08:13:52.359Z,17.70
2019-04-23T08:16:23.374Z,17.60
2019-04-23T08:18:49.773Z,17.70
2019-04-23T08:21:15.144Z,17.70
2019-04-23T08:23:56.968Z,17.80
2019-04-23T08:26:52.073Z,17.90
2019-04-23T08:29:13.931Z,17.90
2019-04-23T08:31:52.005Z,18.00
2019-04-23T08:34:23.900Z,18.10
2019-04-23T08:36:51.849Z,18.30
2019-04-23T08:39:23.176Z,18.40
2019-04-23T08:44:27.317Z,18.20
2019-04-23T08:49:45.260Z,18.40
2019-04-23T08:54:56.806Z,18.10
2019-04-23T08:57:08.855Z,18.10
2019-04-23T09:07:16.534Z,18.00
2019-04-23T09:12:19.612Z,18.10
2019-04-23T09:14:44.992Z,18.10
2019-04-23T09:17:20.809Z,18.00
2019-04-23T09:20:06.038Z,18.10
2019-04-23T09:22:22.377Z,18.10
2019-04-23T09:27:38.145Z,18.20
2019-04-23T09:30:00.771Z,18.30
2019-04-23T09:35:06.239Z,18.30
2019-04-23T09:37:39.077Z,18.50
2019-04-23T09:40:13.998Z,18.60
2019-04-23T09:43:00.604Z,18.70
2019-04-23T09:45:29.976Z,18.70
2019-04-23T09:48:04.805Z,18.70
2019-04-23T09:50:29.768Z,18.80
2019-04-23T09:55:38.801Z,19.10
2019-04-23T10:03:01.530Z,19.60
2019-04-23T10:05:29.132Z,19.70
2019-04-23T10:07:54.392Z,19.80
2019-04-23T10:10:18.444Z,19.90
2019-04-23T10:12:48.212Z,20.00
2019-04-23T10:15:25.026Z,20.10
2019-04-23T10:17:51.944Z,20.20
2019-04-23T10:20:22.539Z,20.30
2019-04-23T10:22:52.593Z,20.30
2019-04-23T10:25:22.747Z,20.40
2019-04-23T10:27:58.544Z,20.40
2019-04-23T10:30:23.769Z,20.50
2019-04-23T10:32:55.726Z,20.50
2019-04-23T10:35:37.359Z,20.70
2019-04-23T10:38:03.734Z,20.80
2019-04-23T10:40:32.564Z,20.80
2019-04-23T10:43:01.230Z,20.80
2019-04-23T10:46:07.961Z,20.70
2019-04-23T10:48:49.933Z,20.90
2019-04-23T10:51:33.801Z,21.00
2019-04-23T10:54:03.101Z,21.10
2019-04-23T10:56:34.758Z,21.20
2019-04-23T10:58:54.465Z,21.20
2019-04-23T11:01:39.151Z,21.20
2019-04-23T11:06:42.763Z,21.20
2019-04-23T11:09:27.759Z,21.20
2019-04-23T11:11:48.327Z,21.20
2019-04-23T11:14:23.157Z,21.20
2019-04-23T11:16:56.575Z,21.30
2019-04-23T11:19:23.598Z,21.40
2019-04-23T11:21:58.477Z,21.60
2019-04-23T11:24:32.509Z,21.60
2019-04-23T11:26:51.533Z,21.70
2019-04-23T11:29:27.959Z,21.70
2019-04-23T11:32:13.405Z,21.80
2019-04-23T11:37:12.386Z,22.00
2019-04-23T11:38:06.994Z,21.90
2019-04-23T11:39:31.140Z,22.00
2019-04-23T11:42:05.174Z,22.10
2019-04-23T11:44:52.953Z,22.30
2019-04-23T11:47:04.247Z,22.40
2019-04-23T11:50:13.867Z,22.40
2019-04-23T11:52:07.925Z,22.40
2019-04-23T11:54:36.045Z,22.50
2019-04-23T11:59:47.209Z,22.60
2019-04-23T12:02:12.020Z,22.70
2019-04-23T12:05:05.484Z,22.70
2019-04-23T12:07:32.825Z,22.80
2019-04-23T12:10:06.118Z,22.90
2019-04-23T12:15:03.558Z,22.80
2019-04-23T12:17:51.203Z,22.70
2019-04-23T12:20:27.158Z,22.80
2019-04-23T12:23:08.960Z,22.80
2019-04-23T12:25:27.541Z,22.50
2019-04-23T12:27:42.186Z,22.50
2019-04-23T12:30:33.923Z,22.50
2019-04-23T12:35:25.850Z,22.80
2019-04-23T12:38:08.941Z,22.90
2019-04-23T12:43:12.705Z,23.20
2019-04-23T12:48:15.229Z,23.50
2019-04-23T12:50:50.101Z,23.40
2019-04-23T12:55:43.787Z,23.40
2019-04-23T12:58:17.864Z,23.50
2019-04-23T13:03:16.757Z,23.60
2019-04-23T13:05:35.939Z,23.70
2019-04-23T13:08:26.894Z,23.80
2019-04-23T13:10:45.351Z,23.90
2019-04-23T13:13:23.514Z,23.90
2019-04-23T13:15:48.099Z,24.00
2019-04-23T13:18:23.896Z,24.00
2019-04-23T13:20:44.425Z,24.10
2019-04-23T13:26:06.118Z,24.00
2019-04-23T13:28:40.205Z,23.90
2019-04-23T13:33:44.281Z,23.90
2019-04-23T13:36:18.864Z,24.00
2019-04-23T13:38:45.140Z,24.10
2019-04-23T13:41:23.483Z,24.10
2019-04-23T13:46:32.995Z,24.10
2019-04-23T13:48:41.922Z,24.20
2019-04-23T13:51:20.803Z,24.20
2019-04-23T13:56:24.786Z,24.10
2019-04-23T13:58:54.908Z,24.20
2019-04-23T14:04:11.948Z,24.10
2019-04-23T14:06:35.002Z,24.00
2019-04-23T14:16:48.358Z,24.10
2019-04-23T14:19:02.457Z,24.10
2019-04-23T14:21:30.884Z,24.00
2019-04-23T14:24:22.826Z,24.00
2019-04-23T14:26:38.312Z,24.10
2019-04-23T14:29:04.077Z,24.00
2019-04-23T14:31:36.830Z,23.90
2019-04-23T14:36:42.543Z,23.90
2019-04-23T14:39:15.746Z,23.90
2019-04-23T14:41:45.006Z,23.90
2019-04-23T14:44:12.865Z,24.00
2019-04-23T14:46:49.861Z,23.90
2019-04-23T14:52:00.421Z,23.90
2019-04-23T14:55:19.928Z,24.00
2019-04-23T14:57:24.762Z,24.00
2019-04-23T14:59:34.680Z,24.00
2019-04-23T15:02:12.505Z,24.10
2019-04-23T15:04:39.796Z,24.20
2019-04-23T15:07:18.842Z,24.40
2019-04-23T15:10:08.534Z,24.60
2019-04-23T15:12:30.430Z,24.70
2019-04-23T15:14:59.922Z,24.80
2019-04-23T15:17:28.858Z,24.90
2019-04-23T15:20:15.316Z,25.00
2019-04-23T15:25:25.720Z,25.10
2019-04-23T15:29:58.298Z,25.30
2019-04-23T15:32:45.300Z,25.40
2019-04-23T15:35:25.356Z,25.50
2019-04-23T15:37:58.360Z,25.50
2019-04-23T15:50:15.737Z,25.10
2019-04-23T15:52:54.943Z,24.90
2019-04-23T15:55:12.204Z,24.90
2019-04-23T15:58:01.024Z,24.80
2019-04-23T16:00:12.777Z,24.70
2019-04-23T16:02:20.232Z,24.50
2019-04-23T16:04:49.416Z,24.40
2019-04-23T16:07:38.957Z,24.30
2019-04-23T16:12:51.914Z,24.20
2019-04-23T16:15:35.811Z,24.10
2019-04-23T16:18:15.765Z,24.00
2019-04-23T16:20:49.171Z,24.00
2019-04-23T16:23:05.717Z,23.90
2019-04-23T16:25:36.334Z,23.90
2019-04-23T16:30:48.114Z,23.80
2019-04-23T16:33:11.119Z,23.80
2019-04-23T16:35:58.510Z,23.70
2019-04-23T16:38:36.312Z,23.80
2019-04-23T16:46:06.152Z,23.70
2019-04-23T16:56:11.490Z,23.40
2019-04-23T16:58:55.105Z,23.30
2019-04-23T17:01:07.251Z,23.30
2019-04-23T17:03:40.162Z,23.20
2019-04-23T17:06:10.544Z,23.20
2019-04-23T17:08:53.899Z,23.20
2019-04-23T17:11:15.178Z,23.20
2019-04-23T17:13:38.022Z,23.20
2019-04-23T17:16:15.198Z,23.20
2019-04-23T17:18:48.822Z,23.20
2019-04-23T17:21:18.149Z,23.20
2019-04-23T17:24:07.922Z,23.10
2019-04-23T17:26:19.042Z,23.10
2019-04-23T17:28:47.513Z,23.10
2019-04-23T17:31:32.801Z,23.00
2019-04-23T17:36:24.637Z,22.90
2019-04-23T17:39:08.168Z,22.90
2019-04-23T17:41:31.326Z,22.80
2019-04-23T17:46:34.158Z,22.70
2019-04-23T17:49:10.872Z,22.60
2019-04-23T17:51:35.069Z,22.50
2019-04-23T17:54:19.480Z,22.40
2019-04-23T17:59:20.583Z,22.20
2019-04-23T18:01:57.200Z,22.10
2019-04-23T18:04:20.577Z,22.00
2019-04-23T18:09:18.445Z,21.90
2019-04-23T18:14:13.229Z,21.70
2019-04-23T18:16:55.991Z,21.60
2019-04-23T18:19:16.598Z,21.50
2019-04-23T18:22:15.532Z,21.40
2019-04-23T18:25:05.755Z,21.30
2019-04-23T18:27:31.400Z,21.20
2019-04-23T18:37:56.381Z,20.90
2019-04-23T18:40:36.744Z,20.80
2019-04-23T18:43:21.530Z,20.80
2019-04-23T18:45:46.725Z,20.70
2019-04-23T18:48:10.020Z,20.70
2019-04-23T18:50:53.703Z,20.60
2019-04-23T18:53:27.969Z,20.60
2019-04-23T18:56:03.110Z,20.50
2019-04-23T18:58:10.538Z,20.50
2019-04-23T19:01:00.111Z,20.40
2019-04-23T19:03:38.918Z,20.30
2019-04-23T19:06:06.985Z,20.30
2019-04-23T19:09:03.186Z,20.20
2019-04-23T19:14:07.988Z,20.00
2019-04-23T19:16:54.896Z,19.90
2019-04-23T19:19:11.728Z,19.80
2019-04-23T19:22:07.003Z,19.70
2019-04-23T19:24:15.856Z,19.60
2019-04-23T19:27:03.315Z,19.50
2019-04-23T19:29:21.194Z,19.50
2019-04-23T19:31:54.071Z,19.40
2019-04-23T19:34:34.069Z,19.30
2019-04-23T19:41:59.372Z,19.10
2019-04-23T19:44:28.763Z,19.10
2019-04-23T19:49:31.653Z,19.10
2019-04-23T19:51:57.702Z,19.10
2019-04-23T19:54:34.015Z,19.00
2019-04-23T19:56:56.796Z,18.90
2019-04-23T19:59:43.193Z,18.80
2019-04-23T20:02:00.226Z,18.80
2019-04-23T20:04:39.426Z,18.80
2019-04-23T20:07:12.347Z,18.70
2019-04-23T20:09:43.142Z,18.70
2019-04-23T20:14:41.784Z,18.80
2019-04-23T20:17:23.455Z,18.80
2019-04-23T20:19:44.938Z,18.80
2019-04-23T20:27:13.892Z,18.70
2019-04-23T20:30:15.832Z,18.50
2019-04-23T20:38:02.277Z,18.30
2019-04-23T20:40:11.478Z,18.30
2019-04-23T20:42:34.750Z,18.30
2019-04-23T20:45:08.363Z,18.40
2019-04-23T20:47:37.137Z,18.30
2019-04-23T20:49:58.458Z,18.20
2019-04-23T20:52:33.906Z,18.10
2019-04-23T20:55:08.325Z,18.10
2019-04-23T21:00:12.080Z,17.90
2019-04-23T21:10:37.446Z,17.40
2019-04-23T21:18:15.402Z,17.40
2019-04-23T21:20:37.034Z,17.40
2019-04-23T21:23:08.952Z,17.40
2019-04-23T21:28:26.691Z,17.60
2019-04-23T21:33:30.094Z,17.70
2019-04-23T21:36:15.631Z,17.80
2019-04-23T21:41:29.885Z,17.80
2019-04-23T21:46:20.463Z,17.90
2019-04-23T21:49:14.933Z,17.80
2019-04-23T21:53:51.789Z,17.80
2019-04-23T21:56:23.890Z,17.80
2019-04-23T21:58:59.932Z,17.80
2019-04-23T22:01:33.273Z,17.70
2019-04-23T22:06:41.309Z,17.70
2019-04-23T22:09:08.798Z,17.70
2019-04-23T22:14:10.239Z,17.80
2019-04-23T22:16:40.925Z,17.90
2019-04-23T22:21:45.344Z,18.10
2019-04-23T22:24:07.258Z,18.20
2019-04-23T22:29:14.246Z,18.30
2019-04-23T22:36:48.265Z,18.40
2019-04-23T22:39:09.712Z,18.40
2019-04-23T22:41:50.428Z,18.50
2019-04-23T22:44:32.489Z,18.50
2019-04-23T22:46:52.466Z,18.50
2019-04-23T22:49:38.891Z,18.50
2019-04-23T22:52:06.001Z,18.50
2019-04-23T22:54:31.866Z,18.50
2019-04-23T22:56:54.561Z,18.50
2019-04-23T23:02:41.654Z,18.30
2019-04-23T23:04:54.571Z,18.20
2019-04-23T23:07:20.176Z,18.10
2019-04-23T23:09:54.248Z,18.10
2019-04-23T23:12:22.988Z,18.00
2019-04-23T23:14:54.181Z,18.00
2019-04-23T23:17:24.116Z,17.90
2019-04-23T23:20:03.537Z,17.90
2019-04-23T23:22:18.351Z,17.80
2019-04-23T23:24:57.198Z,17.80
2019-04-23T23:27:23.727Z,17.70
2019-04-23T23:30:05.251Z,17.70
2019-04-23T23:37:28.512Z,17.60
2019-04-23T23:40:11.317Z,17.50
2019-04-23T23:42:34.712Z,17.50
2019-04-23T23:45:14.474Z,17.50
2019-04-23T23:47:37.630Z,17.50
2019-04-23T23:50:15.946Z,17.50
2019-04-23T23:52:40.985Z,17.50
2019-04-23T23:55:12.726Z,17.40
2019-04-23T23:57:30.483Z,17.40
